createdAt,value
2022-10-04T00:01:33.156Z,9.70
2022-10-04T00:04:09.596Z,9.70
2022-10-04T00:06:39.506Z,9.70
2022-10-04T00:09:09.475Z,9.70
2022-10-04T00:11:37.899Z,9.70
2022-10-04T00:14:10.205Z,9.70
2022-10-04T00:16:39.371Z,9.70
2022-10-04T00:19:15.427Z,9.70
2022-10-04T00:21:55.605Z,9.70
2022-10-04T00:24:23.626Z,9.70
2022-10-04T00:26:50.972Z,9.70
2022-10-04T00:29:44.254Z,9.80
2022-10-04T00:32:11.105Z,9.70
2022-10-04T00:34:51.146Z,9.70
2022-10-04T00:37:19.281Z,9.70
2022-10-04T00:39:47.535Z,9.80
2022-10-04T00:42:26.644Z,9.70
2022-10-04T00:44:59.981Z,9.80
2022-10-04T00:47:36.450Z,9.70
2022-10-04T00:50:19.014Z,9.60
2022-10-04T00:52:50.496Z,9.70
2022-10-04T00:55:33.508Z,9.60
2022-10-04T00:58:03.011Z,9.60
2022-10-04T01:00:33.807Z,9.60
2022-10-04T01:03:01.292Z,9.50
2022-10-04T01:05:36.433Z,9.50
2022-10-04T01:08:07.860Z,9.50
2022-10-04T01:10:39.878Z,9.50
2022-10-04T01:13:13.116Z,9.50
2022-10-04T01:15:49.518Z,9.40
2022-10-04T01:18:29.627Z,9.40
2022-10-04T01:21:17.090Z,9.30
2022-10-04T01:23:48.291Z,9.30
2022-10-04T01:26:30.646Z,9.30
2022-10-04T01:29:01.014Z,9.30
2022-10-04T01:31:28.926Z,9.30
2022-10-04T01:33:56.705Z,9.20
2022-10-04T01:36:24.099Z,9.20
2022-10-04T01:38:51.727Z,9.30
2022-10-04T01:41:21.476Z,9.20
2022-10-04T01:43:50.849Z,9.30
2022-10-04T01:46:21.546Z,9.20
2022-10-04T01:48:49.097Z,9.20
2022-10-04T01:51:19.575Z,9.20
2022-10-04T01:53:59.371Z,9.20
2022-10-04T01:56:30.664Z,9.10
2022-10-04T01:59:03.485Z,9.10
2022-10-04T02:01:38.404Z,9.00
2022-10-04T02:04:27.965Z,9.00
2022-10-04T02:06:56.903Z,9.00
2022-10-04T02:09:34.198Z,9.00
2022-10-04T02:12:02.073Z,8.90
2022-10-04T02:14:35.779Z,8.90
2022-10-04T02:17:05.428Z,8.90
2022-10-04T02:19:34.809Z,8.90
2022-10-04T02:22:03.839Z,8.80
2022-10-04T02:24:35.804Z,8.80
2022-10-04T02:27:03.653Z,8.80
2022-10-04T02:29:31.128Z,8.80
2022-10-04T02:32:17.503Z,8.80
2022-10-04T02:34:46.754Z,8.80
2022-10-04T02:37:15.012Z,8.80
2022-10-04T02:39:50.563Z,8.80
2022-10-04T02:42:22.047Z,8.90
2022-10-04T02:44:49.531Z,8.80
2022-10-04T02:47:18.878Z,8.90
2022-10-04T02:49:50.348Z,8.90
2022-10-04T02:52:23.728Z,8.90
2022-10-04T02:55:05.773Z,9.00
2022-10-04T02:57:34.321Z,8.90
2022-10-04T03:00:03.271Z,8.90
2022-10-04T03:02:31.196Z,8.90
2022-10-04T03:05:06.195Z,8.90
2022-10-04T03:07:35.067Z,8.90
2022-10-04T03:10:03.279Z,8.90
2022-10-04T03:12:32.094Z,8.80
2022-10-04T03:15:00.078Z,8.80
2022-10-04T03:17:28.715Z,8.80
2022-10-04T03:19:57.478Z,8.80
2022-10-04T03:22:24.940Z,8.80
2022-10-04T03:24:53.863Z,8.80
2022-10-04T03:27:23.295Z,8.80
2022-10-04T03:29:52.739Z,8.80
2022-10-04T03:32:23.111Z,8.80
2022-10-04T03:34:55.996Z,8.70
2022-10-04T03:37:24.255Z,8.70
2022-10-04T03:39:53.083Z,8.70
2022-10-04T03:42:22.132Z,8.60
2022-10-04T03:44:50.317Z,8.60
2022-10-04T03:47:22.183Z,8.50
2022-10-04T03:49:50.980Z,8.50
2022-10-04T03:52:21.995Z,8.50
2022-10-04T03:54:51.395Z,8.40
2022-10-04T03:57:18.289Z,8.40
2022-10-04T03:59:45.686Z,8.40
2022-10-04T04:02:27.574Z,8.40
2022-10-04T04:05:02.176Z,8.40
2022-10-04T04:07:49.119Z,8.40
2022-10-04T04:10:22.466Z,8.40
2022-10-04T04:12:49.500Z,8.30
2022-10-04T04:15:17.618Z,8.30
2022-10-04T04:17:47.006Z,8.30
2022-10-04T04:20:22.448Z,8.40
2022-10-04T04:22:55.143Z,8.30
2022-10-04T04:25:24.282Z,8.30
2022-10-04T04:27:53.110Z,8.20
2022-10-04T04:30:19.929Z,8.30
2022-10-04T04:32:50.099Z,8.20
2022-10-04T04:35:25.394Z,8.20
2022-10-04T04:38:16.134Z,8.20
2022-10-04T04:40:43.068Z,8.20
2022-10-04T04:43:12.634Z,8.20
2022-10-04T04:45:39.508Z,8.20
2022-10-04T04:48:07.267Z,8.20
2022-10-04T04:50:36.463Z,8.10
2022-10-04T04:53:05.408Z,8.10
2022-10-04T04:56:02.177Z,8.10
2022-10-04T04:58:33.328Z,8.10
2022-10-04T05:01:06.651Z,8.10
2022-10-04T05:03:34.225Z,8.00
2022-10-04T05:06:05.149Z,8.10
2022-10-04T05:08:37.166Z,8.10
2022-10-04T05:11:09.812Z,8.10
2022-10-04T05:13:41.724Z,8.10
2022-10-04T05:16:17.418Z,8.10
2022-10-04T05:18:45.197Z,8.10
2022-10-04T05:21:14.825Z,8.10
2022-10-04T05:23:41.547Z,8.00
2022-10-04T05:26:12.252Z,8.00
2022-10-04T05:28:39.367Z,8.00
2022-10-04T05:31:25.126Z,8.00
2022-10-04T05:33:54.060Z,8.00
2022-10-04T05:36:23.511Z,8.00
2022-10-04T05:38:53.472Z,7.90
2022-10-04T05:41:23.259Z,7.90
2022-10-04T05:43:51.332Z,7.80
2022-10-04T05:46:21.336Z,7.80
2022-10-04T05:48:51.600Z,7.80
2022-10-04T05:51:19.711Z,7.80
2022-10-04T05:53:47.041Z,7.80
2022-10-04T05:56:32.413Z,7.80
2022-10-04T05:59:14.365Z,7.80
2022-10-04T06:02:04.053Z,7.80
2022-10-04T06:04:52.851Z,7.80
2022-10-04T06:07:22.592Z,7.80
2022-10-04T06:10:07.936Z,7.80
2022-10-04T06:12:44.448Z,7.70
2022-10-04T06:15:21.989Z,7.80
2022-10-04T06:17:58.138Z,7.80
2022-10-04T06:20:30.762Z,7.90
2022-10-04T06:23:01.936Z,8.00
2022-10-04T06:25:35.154Z,8.10
2022-10-04T06:28:15.941Z,8.20
2022-10-04T06:31:00.493Z,8.20
2022-10-04T06:33:50.438Z,8.20
2022-10-04T06:36:19.873Z,8.30
2022-10-04T06:38:47.189Z,8.40
2022-10-04T06:41:19.869Z,8.50
2022-10-04T06:43:49.385Z,8.60
2022-10-04T06:46:22.286Z,8.70
2022-10-04T06:48:49.053Z,8.90
2022-10-04T06:51:34.717Z,9.10
2022-10-04T06:54:13.951Z,9.20
2022-10-04T06:56:56.017Z,9.20
2022-10-04T06:59:25.537Z,9.40
2022-10-04T07:01:55.113Z,9.60
2022-10-04T07:04:24.846Z,9.70
2022-10-04T07:07:24.972Z,10.00
2022-10-04T07:09:55.403Z,10.30
2022-10-04T07:12:22.617Z,10.70
2022-10-04T07:14:51.581Z,11.00
2022-10-04T07:17:21.846Z,11.10
2022-10-04T07:19:49.740Z,11.20
2022-10-04T07:22:29.344Z,11.10
2022-10-04T07:24:56.053Z,11.00
2022-10-04T07:27:43.089Z,11.00
2022-10-04T07:30:16.066Z,11.10
2022-10-04T07:32:58.349Z,11.20
2022-10-04T07:35:36.439Z,11.00
2022-10-04T07:38:10.839Z,11.00
2022-10-04T07:40:38.931Z,11.00
2022-10-04T07:43:13.454Z,11.10
2022-10-04T07:45:41.726Z,11.10
2022-10-04T07:48:11.509Z,11.00
2022-10-04T07:50:49.670Z,11.00
2022-10-04T07:53:18.226Z,10.90
2022-10-04T07:56:01.570Z,10.80
2022-10-04T07:58:34.979Z,10.80
2022-10-04T08:01:04.166Z,10.90
2022-10-04T08:03:52.106Z,11.10
2022-10-04T08:06:31.976Z,11.50
2022-10-04T08:09:17.318Z,11.90
2022-10-04T08:11:44.475Z,12.30
2022-10-04T08:14:11.344Z,12.50
2022-10-04T08:16:47.063Z,12.80
2022-10-04T08:19:36.127Z,13.20
2022-10-04T08:59:20.970Z,15.50
2022-10-04T09:02:00.224Z,16.00
2022-10-04T09:04:39.255Z,16.50
2022-10-04T09:07:05.927Z,16.80
2022-10-04T09:09:44.650Z,16.90
2022-10-04T09:12:29.315Z,16.90
2022-10-04T09:15:02.236Z,16.70
2022-10-04T09:17:28.941Z,16.20
2022-10-04T09:20:09.099Z,16.20
2022-10-04T09:22:48.225Z,16.40
2022-10-04T09:25:15.073Z,16.70
2022-10-04T09:28:00.785Z,17.00
